sensor_id;sensor_type;location;lat;lon;timestamp;temperature;humidity
48752;DHT22;34544;48.836;9.174;2023-07-09T00:00:01;21.60;99.90
48752;DHT22;34544;48.836;9.174;2023-07-09T00:02:27;21.60;99.90
48752;DHT22;34544;48.836;9.174;2023-07-09T00:04:53;21.50;99.90
48752;DHT22;34544;48.836;9.174;2023-07-09T00:07:32;21.50;99.90
48752;DHT22;34544;48.836;9.174;2023-07-09T00:09:58;21.40;99.90
48752;DHT22;34544;48.836;9.174;2023-07-09T00:12:24;21.40;99.90
48752;DHT22;34544;48.836;9.174;2023-07-09T00:14:50;21.30;99.90
48752;DHT22;34544;48.836;9.174;2023-07-09T00:17:27;21.30;99.90
48752;DHT22;34544;48.836;9.174;2023-07-09T00:19:53;21.30;99.90
48752;DHT22;34544;48.836;9.174;2023-07-09T00:22:20;21.20;99.90
48752;DHT22;34544;48.836;9.174;2023-07-09T00:24:50;21.10;99.90
48752;DHT22;34544;48.836;9.174;2023-07-09T00:27:18;21.10;99.90
48752;DHT22;34544;48.836;9.174;2023-07-09T00:29:44;21.10;99.90
48752;DHT22;34544;48.836;9.174;2023-07-09T00:32:15;21.00;99.90
48752;DHT22;34544;48.836;9.174;2023-07-09T00:34:44;21.00;99.90
48752;DHT22;34544;48.836;9.174;2023-07-09T00:37:18;21.00;99.90
48752;DHT22;34544;48.836;9.174;2023-07-09T00:39:46;21.00;99.90
48752;DHT22;34544;48.836;9.174;2023-07-09T00:42:17;20.90;99.90
48752;DHT22;34544;48.836;9.174;2023-07-09T00:44:48;20.90;99.90
48752;DHT22;34544;48.836;9.174;2023-07-09T00:47:22;20.80;99.90
48752;DHT22;34544;48.836;9.174;2023-07-09T00:50:21;20.80;99.90
48752;DHT22;34544;48.836;9.174;2023-07-09T00:53:10;20.80;99.90
48752;DHT22;34544;48.836;9.174;2023-07-09T00:55:40;20.80;99.90
48752;DHT22;34544;48.836;9.174;2023-07-09T00:58:10;20.70;99.90
48752;DHT22;34544;48.836;9.174;2023-07-09T01:00:43;20.70;99.90
48752;DHT22;34544;48.836;9.174;2023-07-09T01:03:20;20.60;99.90
48752;DHT22;34544;48.836;9.174;2023-07-09T01:05:47;20.60;99.90
48752;DHT22;34544;48.836;9.174;2023-07-09T01:08:18;20.60;99.90
48752;DHT22;34544;48.836;9.174;2023-07-09T01:10:46;20.60;99.90
48752;DHT22;34544;48.836;9.174;2023-07-09T01:13:12;20.50;99.90
48752;DHT22;34544;48.836;9.174;2023-07-09T01:15:38;20.40;99.90
48752;DHT22;34544;48.836;9.174;2023-07-09T01:18:04;20.40;99.90
48752;DHT22;34544;48.836;9.174;2023-07-09T01:20:30;20.40;99.90
48752;DHT22;34544;48.836;9.174;2023-07-09T01:22:57;20.40;99.90
48752;DHT22;34544;48.836;9.174;2023-07-09T01:25:26;20.30;99.90
48752;DHT22;34544;48.836;9.174;2023-07-09T01:27:54;20.30;99.90
48752;DHT22;34544;48.836;9.174;2023-07-09T01:30:27;20.30;99.90
48752;DHT22;34544;48.836;9.174;2023-07-09T01:32:57;20.20;99.90
48752;DHT22;34544;48.836;9.174;2023-07-09T01:35:23;20.20;99.90
48752;DHT22;34544;48.836;9.174;2023-07-09T01:37:49;20.20;99.90
48752;DHT22;34544;48.836;9.174;2023-07-09T01:40:18;20.20;99.90
48752;DHT22;34544;48.836;9.174;2023-07-09T01:42:45;20.10;99.90
48752;DHT22;34544;48.836;9.174;2023-07-09T01:45:11;20.10;99.90
48752;DHT22;34544;48.836;9.174;2023-07-09T01:47:38;20.10;99.90
48752;DHT22;34544;48.836;9.174;2023-07-09T01:50:06;20.10;99.90
48752;DHT22;34544;48.836;9.174;2023-07-09T01:52:33;20.00;99.90
48752;DHT22;34544;48.836;9.174;2023-07-09T01:55:01;20.00;99.90
48752;DHT22;34544;48.836;9.174;2023-07-09T01:57:30;19.90;99.90
48752;DHT22;34544;48.836;9.174;2023-07-09T02:00:05;19.90;99.90
48752;DHT22;34544;48.836;9.174;2023-07-09T02:02:40;19.90;99.90
48752;DHT22;34544;48.836;9.174;2023-07-09T02:05:11;19.90;99.90
48752;DHT22;34544;48.836;9.174;2023-07-09T02:07:38;19.90;99.90
48752;DHT22;34544;48.836;9.174;2023-07-09T02:10:05;19.80;99.90
48752;DHT22;34544;48.836;9.174;2023-07-09T02:12:31;19.80;99.90
48752;DHT22;34544;48.836;9.174;2023-07-09T02:14:57;19.70;99.90
48752;DHT22;34544;48.836;9.174;2023-07-09T02:17:23;19.70;99.90
48752;DHT22;34544;48.836;9.174;2023-07-09T02:19:50;19.70;99.90
48752;DHT22;34544;48.836;9.174;2023-07-09T02:22:16;19.70;99.90
48752;DHT22;34544;48.836;9.174;2023-07-09T02:24:42;19.70;99.90
48752;DHT22;34544;48.836;9.174;2023-07-09T02:27:09;19.60;99.90
48752;DHT22;34544;48.836;9.174;2023-07-09T02:29:36;19.60;99.90
48752;DHT22;34544;48.836;9.174;2023-07-09T02:32:02;19.60;99.90
48752;DHT22;34544;48.836;9.174;2023-07-09T02:34:30;19.60;99.90
48752;DHT22;34544;48.836;9.174;2023-07-09T02:36:57;19.50;99.90
48752;DHT22;34544;48.836;9.174;2023-07-09T02:39:24;19.50;99.90
48752;DHT22;34544;48.836;9.174;2023-07-09T02:41:50;19.50;99.90
48752;DHT22;34544;48.836;9.174;2023-07-09T02:44:17;19.50;99.90
48752;DHT22;34544;48.836;9.174;2023-07-09T02:46:43;19.40;99.90
48752;DHT22;34544;48.836;9.174;2023-07-09T02:49:11;19.40;99.90
48752;DHT22;34544;48.836;9.174;2023-07-09T02:51:38;19.40;99.90
48752;DHT22;34544;48.836;9.174;2023-07-09T02:54:04;19.40;99.90
48752;DHT22;34544;48.836;9.174;2023-07-09T02:56:30;19.30;99.90
48752;DHT22;34544;48.836;9.174;2023-07-09T02:58:56;19.30;99.90
48752;DHT22;34544;48.836;9.174;2023-07-09T03:01:22;19.30;99.90
48752;DHT22;34544;48.836;9.174;2023-07-09T03:03:51;19.30;99.90
48752;DHT22;34544;48.836;9.174;2023-07-09T03:06:19;19.30;99.90
48752;DHT22;34544;48.836;9.174;2023-07-09T03:08:45;19.20;99.90
48752;DHT22;34544;48.836;9.174;2023-07-09T03:11:12;19.20;99.90
48752;DHT22;34544;48.836;9.174;2023-07-09T03:13:38;19.20;99.90
48752;DHT22;34544;48.836;9.174;2023-07-09T03:16:04;19.10;99.90
48752;DHT22;34544;48.836;9.174;2023-07-09T03:18:30;19.10;99.90
48752;DHT22;34544;48.836;9.174;2023-07-09T03:20:56;19.10;99.90
48752;DHT22;34544;48.836;9.174;2023-07-09T03:23:22;19.10;99.90
48752;DHT22;34544;48.836;9.174;2023-07-09T03:25:47;19.00;99.90
48752;DHT22;34544;48.836;9.174;2023-07-09T03:28:13;19.00;99.90
48752;DHT22;34544;48.836;9.174;2023-07-09T03:30:43;19.00;99.90
48752;DHT22;34544;48.836;9.174;2023-07-09T03:33:11;19.00;99.90
48752;DHT22;34544;48.836;9.174;2023-07-09T03:35:37;19.00;99.90
48752;DHT22;34544;48.836;9.174;2023-07-09T03:38:07;18.90;99.90
48752;DHT22;34544;48.836;9.174;2023-07-09T03:40:34;18.90;99.90
48752;DHT22;34544;48.836;9.174;2023-07-09T03:43:00;19.00;99.90
48752;DHT22;34544;48.836;9.174;2023-07-09T03:45:26;19.00;99.90
48752;DHT22;34544;48.836;9.174;2023-07-09T03:47:51;18.90;99.90
48752;DHT22;34544;48.836;9.174;2023-07-09T03:50:17;18.90;99.90
48752;DHT22;34544;48.836;9.174;2023-07-09T03:52:43;18.90;99.90
48752;DHT22;34544;48.836;9.174;2023-07-09T03:55:09;18.90;99.90
48752;DHT22;34544;48.836;9.174;2023-07-09T03:57:35;18.90;99.90
48752;DHT22;34544;48.836;9.174;2023-07-09T04:00:02;18.90;99.90
48752;DHT22;34544;48.836;9.174;2023-07-09T04:02:41;18.90;99.90
48752;DHT22;34544;48.836;9.174;2023-07-09T04:05:10;18.90;99.90
48752;DHT22;34544;48.836;9.174;2023-07-09T04:07:36;18.90;99.90
48752;DHT22;34544;48.836;9.174;2023-07-09T04:10:03;18.90;99.90
48752;DHT22;34544;48.836;9.174;2023-07-09T04:12:28;18.90;99.90
48752;DHT22;34544;48.836;9.174;2023-07-09T04:14:54;19.00;99.90
48752;DHT22;34544;48.836;9.174;2023-07-09T04:17:19;19.00;99.90
48752;DHT22;34544;48.836;9.174;2023-07-09T04:19:47;19.10;99.90
48752;DHT22;34544;48.836;9.174;2023-07-09T04:22:13;19.10;99.90
48752;DHT22;34544;48.836;9.174;2023-07-09T04:24:38;19.10;99.90
48752;DHT22;34544;48.836;9.174;2023-07-09T04:27:04;19.20;99.90
48752;DHT22;34544;48.836;9.174;2023-07-09T04:29:31;19.30;99.90
48752;DHT22;34544;48.836;9.174;2023-07-09T04:31:59;19.30;99.90
48752;DHT22;34544;48.836;9.174;2023-07-09T04:34:25;19.40;99.90
48752;DHT22;34544;48.836;9.174;2023-07-09T04:36:51;19.40;99.90
48752;DHT22;34544;48.836;9.174;2023-07-09T04:39:16;19.50;99.90
48752;DHT22;34544;48.836;9.174;2023-07-09T04:41:42;19.60;99.90
48752;DHT22;34544;48.836;9.174;2023-07-09T04:44:08;19.60;99.90
48752;DHT22;34544;48.836;9.174;2023-07-09T04:46:33;19.70;99.90
48752;DHT22;34544;48.836;9.174;2023-07-09T04:48:59;19.80;99.90
48752;DHT22;34544;48.836;9.174;2023-07-09T04:51:26;20.00;99.90
48752;DHT22;34544;48.836;9.174;2023-07-09T04:53:52;20.10;99.90
48752;DHT22;34544;48.836;9.174;2023-07-09T04:56:18;20.20;99.90
48752;DHT22;34544;48.836;9.174;2023-07-09T04:58:44;20.30;99.90
48752;DHT22;34544;48.836;9.174;2023-07-09T05:01:09;20.50;99.90
48752;DHT22;34544;48.836;9.174;2023-07-09T05:03:35;20.60;99.90
48752;DHT22;34544;48.836;9.174;2023-07-09T05:06:02;20.70;99.90
48752;DHT22;34544;48.836;9.174;2023-07-09T05:08:28;20.90;99.90
48752;DHT22;34544;48.836;9.174;2023-07-09T05:10:55;21.00;99.90
48752;DHT22;34544;48.836;9.174;2023-07-09T05:13:21;21.10;99.90
48752;DHT22;34544;48.836;9.174;2023-07-09T05:15:47;21.20;99.90
48752;DHT22;34544;48.836;9.174;2023-07-09T05:18:14;21.40;99.90
48752;DHT22;34544;48.836;9.174;2023-07-09T05:20:41;21.50;99.90
48752;DHT22;34544;48.836;9.174;2023-07-09T05:23:09;21.60;99.90
48752;DHT22;34544;48.836;9.174;2023-07-09T05:25:35;21.70;99.90
48752;DHT22;34544;48.836;9.174;2023-07-09T05:28:01;21.80;99.90
48752;DHT22;34544;48.836;9.174;2023-07-09T05:30:27;21.90;99.90
48752;DHT22;34544;48.836;9.174;2023-07-09T05:32:52;22.00;99.90
48752;DHT22;34544;48.836;9.174;2023-07-09T05:35:21;22.10;99.90
48752;DHT22;34544;48.836;9.174;2023-07-09T05:37:47;22.20;99.90
48752;DHT22;34544;48.836;9.174;2023-07-09T05:40:13;22.30;99.90
48752;DHT22;34544;48.836;9.174;2023-07-09T05:42:38;22.30;99.90
48752;DHT22;34544;48.836;9.174;2023-07-09T05:45:04;22.40;99.90
48752;DHT22;34544;48.836;9.174;2023-07-09T05:47:30;22.50;99.90
48752;DHT22;34544;48.836;9.174;2023-07-09T05:49:56;22.50;99.90
48752;DHT22;34544;48.836;9.174;2023-07-09T05:52:22;22.60;99.90
48752;DHT22;34544;48.836;9.174;2023-07-09T05:54:50;22.60;99.90
48752;DHT22;34544;48.836;9.174;2023-07-09T05:57:16;22.70;99.90
48752;DHT22;34544;48.836;9.174;2023-07-09T05:59:42;22.80;99.90
48752;DHT22;34544;48.836;9.174;2023-07-09T06:02:14;22.90;99.90
48752;DHT22;34544;48.836;9.174;2023-07-09T06:04:40;23.00;99.90
48752;DHT22;34544;48.836;9.174;2023-07-09T06:07:06;23.00;99.90
48752;DHT22;34544;48.836;9.174;2023-07-09T06:09:32;23.10;99.90
48752;DHT22;34544;48.836;9.174;2023-07-09T06:11:58;23.20;99.90
48752;DHT22;34544;48.836;9.174;2023-07-09T06:14:24;23.30;99.90
48752;DHT22;34544;48.836;9.174;2023-07-09T06:16:50;23.40;99.90
48752;DHT22;34544;48.836;9.174;2023-07-09T06:19:15;23.50;99.90
48752;DHT22;34544;48.836;9.174;2023-07-09T06:21:41;23.60;99.90
48752;DHT22;34544;48.836;9.174;2023-07-09T06:24:09;23.70;99.90
48752;DHT22;34544;48.836;9.174;2023-07-09T06:26:35;23.80;99.90
48752;DHT22;34544;48.836;9.174;2023-07-09T06:29:00;23.90;99.90
48752;DHT22;34544;48.836;9.174;2023-07-09T06:31:26;24.00;99.90
48752;DHT22;34544;48.836;9.174;2023-07-09T06:33:52;24.10;99.90
48752;DHT22;34544;48.836;9.174;2023-07-09T06:36:19;24.20;99.90
48752;DHT22;34544;48.836;9.174;2023-07-09T06:38:45;24.30;99.90
48752;DHT22;34544;48.836;9.174;2023-07-09T06:41:11;24.40;99.90
48752;DHT22;34544;48.836;9.174;2023-07-09T06:43:37;24.50;99.90
48752;DHT22;34544;48.836;9.174;2023-07-09T06:46:11;24.70;99.90
48752;DHT22;34544;48.836;9.174;2023-07-09T06:48:36;24.80;99.90
48752;DHT22;34544;48.836;9.174;2023-07-09T06:51:02;24.90;99.90
48752;DHT22;34544;48.836;9.174;2023-07-09T06:53:29;25.00;99.90
48752;DHT22;34544;48.836;9.174;2023-07-09T06:55:55;25.10;99.90
48752;DHT22;34544;48.836;9.174;2023-07-09T06:58:25;25.20;99.90
48752;DHT22;34544;48.836;9.174;2023-07-09T07:00:51;25.30;99.90
48752;DHT22;34544;48.836;9.174;2023-07-09T07:03:17;25.50;99.90
48752;DHT22;34544;48.836;9.174;2023-07-09T07:05:44;25.70;99.90
48752;DHT22;34544;48.836;9.174;2023-07-09T07:08:10;25.80;99.90
48752;DHT22;34544;48.836;9.174;2023-07-09T07:10:36;26.10;99.90
48752;DHT22;34544;48.836;9.174;2023-07-09T07:13:02;26.30;99.90
48752;DHT22;34544;48.836;9.174;2023-07-09T07:15:27;26.60;99.90
48752;DHT22;34544;48.836;9.174;2023-07-09T07:17:53;26.80;99.90
48752;DHT22;34544;48.836;9.174;2023-07-09T07:20:19;27.10;99.90
48752;DHT22;34544;48.836;9.174;2023-07-09T07:22:45;27.30;99.90
48752;DHT22;34544;48.836;9.174;2023-07-09T07:25:11;27.60;99.90
48752;DHT22;34544;48.836;9.174;2023-07-09T07:27:38;27.80;99.90
48752;DHT22;34544;48.836;9.174;2023-07-09T07:30:04;28.00;99.90
48752;DHT22;34544;48.836;9.174;2023-07-09T07:32:32;28.30;99.90
48752;DHT22;34544;48.836;9.174;2023-07-09T07:34:57;28.40;99.90
48752;DHT22;34544;48.836;9.174;2023-07-09T07:37:23;28.60;99.90
48752;DHT22;34544;48.836;9.174;2023-07-09T07:39:49;28.80;99.90
48752;DHT22;34544;48.836;9.174;2023-07-09T07:42:14;29.00;99.90
48752;DHT22;34544;48.836;9.174;2023-07-09T07:44:40;29.30;99.90
48752;DHT22;34544;48.836;9.174;2023-07-09T07:47:06;29.50;99.90
48752;DHT22;34544;48.836;9.174;2023-07-09T07:49:32;29.80;99.90
48752;DHT22;34544;48.836;9.174;2023-07-09T07:51:58;30.00;99.00
48752;DHT22;34544;48.836;9.174;2023-07-09T07:54:24;30.10;99.00
48752;DHT22;34544;48.836;9.174;2023-07-09T07:56:49;30.20;98.50
48752;DHT22;34544;48.836;9.174;2023-07-09T07:59:17;30.40;98.40
48752;DHT22;34544;48.836;9.174;2023-07-09T08:01:43;30.60;98.30
48752;DHT22;34544;48.836;9.174;2023-07-09T08:04:08;30.80;96.70
48752;DHT22;34544;48.836;9.174;2023-07-09T08:06:34;30.90;96.50
48752;DHT22;34544;48.836;9.174;2023-07-09T08:09:00;31.10;97.30
48752;DHT22;34544;48.836;9.174;2023-07-09T08:11:26;31.30;96.30
48752;DHT22;34544;48.836;9.174;2023-07-09T08:13:53;31.50;95.40
48752;DHT22;34544;48.836;9.174;2023-07-09T08:16:19;31.70;95.90
48752;DHT22;34544;48.836;9.174;2023-07-09T08:18:44;31.90;94.20
48752;DHT22;34544;48.836;9.174;2023-07-09T08:21:10;32.00;94.00
48752;DHT22;34544;48.836;9.174;2023-07-09T08:23:36;32.10;94.40
48752;DHT22;34544;48.836;9.174;2023-07-09T08:26:02;32.20;94.10
48752;DHT22;34544;48.836;9.174;2023-07-09T08:28:29;32.40;93.70
48752;DHT22;34544;48.836;9.174;2023-07-09T08:30:55;32.60;92.90
48752;DHT22;34544;48.836;9.174;2023-07-09T08:33:22;32.70;92.50
48752;DHT22;34544;48.836;9.174;2023-07-09T08:35:52;32.80;92.60
48752;DHT22;34544;48.836;9.174;2023-07-09T08:38:18;32.80;92.30
48752;DHT22;34544;48.836;9.174;2023-07-09T08:43:36;33.10;93.00
48752;DHT22;34544;48.836;9.174;2023-07-09T08:46:14;33.30;99.90
48752;DHT22;34544;48.836;9.174;2023-07-09T08:48:46;33.30;91.50
48752;DHT22;34544;48.836;9.174;2023-07-09T08:51:28;33.30;91.60
48752;DHT22;34544;48.836;9.174;2023-07-09T08:56:24;33.70;94.80
48752;DHT22;34544;48.836;9.174;2023-07-09T08:58:51;33.80;95.40
48752;DHT22;34544;48.836;9.174;2023-07-09T09:01:27;33.90;90.50
48752;DHT22;34544;48.836;9.174;2023-07-09T09:10:10;34.50;93.30
48752;DHT22;34544;48.836;9.174;2023-07-09T09:12:38;34.70;88.00
48752;DHT22;34544;48.836;9.174;2023-07-09T09:15:17;34.90;88.70
48752;DHT22;34544;48.836;9.174;2023-07-09T09:17:43;35.20;88.40
48752;DHT22;34544;48.836;9.174;2023-07-09T09:20:17;35.30;85.30
48752;DHT22;34544;48.836;9.174;2023-07-09T09:23:09;35.50;85.80
48752;DHT22;34544;48.836;9.174;2023-07-09T09:25:44;35.80;84.20
48752;DHT22;34544;48.836;9.174;2023-07-09T09:28:11;36.00;83.90
48752;DHT22;34544;48.836;9.174;2023-07-09T09:30:36;36.20;84.50
48752;DHT22;34544;48.836;9.174;2023-07-09T09:33:09;36.50;83.50
48752;DHT22;34544;48.836;9.174;2023-07-09T09:35:40;36.60;81.70
48752;DHT22;34544;48.836;9.174;2023-07-09T09:38:11;36.60;80.60
48752;DHT22;34544;48.836;9.174;2023-07-09T09:40:37;36.60;81.20
48752;DHT22;34544;48.836;9.174;2023-07-09T09:43:16;36.80;81.10
48752;DHT22;34544;48.836;9.174;2023-07-09T09:45:45;36.90;81.20
48752;DHT22;34544;48.836;9.174;2023-07-09T09:48:27;37.10;80.20
48752;DHT22;34544;48.836;9.174;2023-07-09T09:50:55;37.50;79.80
48752;DHT22;34544;48.836;9.174;2023-07-09T09:53:24;37.70;78.90
48752;DHT22;34544;48.836;9.174;2023-07-09T09:55:52;37.70;79.00
48752;DHT22;34544;48.836;9.174;2023-07-09T09:58:19;37.80;78.00
48752;DHT22;34544;48.836;9.174;2023-07-09T10:00:52;37.90;78.20
48752;DHT22;34544;48.836;9.174;2023-07-09T10:03:18;37.90;74.00
48752;DHT22;34544;48.836;9.174;2023-07-09T10:05:55;37.70;74.60
48752;DHT22;34544;48.836;9.174;2023-07-09T10:08:29;37.60;75.30
48752;DHT22;34544;48.836;9.174;2023-07-09T10:11:14;37.70;76.30
48752;DHT22;34544;48.836;9.174;2023-07-09T10:13:44;37.80;72.70
48752;DHT22;34544;48.836;9.174;2023-07-09T10:16:27;37.90;74.30
48752;DHT22;34544;48.836;9.174;2023-07-09T10:22:16;38.80;72.30
48752;DHT22;34544;48.836;9.174;2023-07-09T10:33:10;39.10;69.00
48752;DHT22;34544;48.836;9.174;2023-07-09T10:36:01;39.40;69.00
48752;DHT22;34544;48.836;9.174;2023-07-09T10:41:13;39.80;66.00
48752;DHT22;34544;48.836;9.174;2023-07-09T10:46:37;40.20;65.00
48752;DHT22;34544;48.836;9.174;2023-07-09T10:49:05;40.50;63.80
48752;DHT22;34544;48.836;9.174;2023-07-09T10:51:38;40.30;62.30
48752;DHT22;34544;48.836;9.174;2023-07-09T10:54:30;40.10;63.20
48752;DHT22;34544;48.836;9.174;2023-07-09T10:57:12;40.20;62.90
48752;DHT22;34544;48.836;9.174;2023-07-09T10:59:42;40.40;63.20
48752;DHT22;34544;48.836;9.174;2023-07-09T11:04:49;40.50;61.20
48752;DHT22;34544;48.836;9.174;2023-07-09T11:07:20;40.80;61.40
48752;DHT22;34544;48.836;9.174;2023-07-09T11:09:48;41.10;61.60
48752;DHT22;34544;48.836;9.174;2023-07-09T11:15:02;41.40;68.20
48752;DHT22;34544;48.836;9.174;2023-07-09T11:17:40;41.80;59.10
48752;DHT22;34544;48.836;9.174;2023-07-09T11:20:32;42.10;60.10
48752;DHT22;34544;48.836;9.174;2023-07-09T11:23:05;42.30;57.70
48752;DHT22;34544;48.836;9.174;2023-07-09T11:25:42;41.80;57.80
48752;DHT22;34544;48.836;9.174;2023-07-09T11:28:09;41.70;57.30
48752;DHT22;34544;48.836;9.174;2023-07-09T11:30:52;41.60;57.80
48752;DHT22;34544;48.836;9.174;2023-07-09T11:38:46;41.80;55.50
48752;DHT22;34544;48.836;9.174;2023-07-09T11:41:34;41.50;55.60
48752;DHT22;34544;48.836;9.174;2023-07-09T11:52:22;41.90;56.00
48752;DHT22;34544;48.836;9.174;2023-07-09T11:54:49;41.90;55.00
48752;DHT22;34544;48.836;9.174;2023-07-09T11:57:17;41.50;54.70
48752;DHT22;34544;48.836;9.174;2023-07-09T11:59:43;41.10;54.40
48752;DHT22;34544;48.836;9.174;2023-07-09T12:02:19;41.30;55.10
48752;DHT22;34544;48.836;9.174;2023-07-09T12:04:48;41.70;56.80
48752;DHT22;34544;48.836;9.174;2023-07-09T12:07:15;42.20;56.30
48752;DHT22;34544;48.836;9.174;2023-07-09T12:09:47;42.80;54.00
48752;DHT22;34544;48.836;9.174;2023-07-09T12:12:23;43.20;54.40
48752;DHT22;34544;48.836;9.174;2023-07-09T12:14:49;43.40;53.70
48752;DHT22;34544;48.836;9.174;2023-07-09T12:17:15;43.50;52.80
48752;DHT22;34544;48.836;9.174;2023-07-09T12:19:41;43.20;51.50
48752;DHT22;34544;48.836;9.174;2023-07-09T12:22:15;42.60;50.30
48752;DHT22;34544;48.836;9.174;2023-07-09T12:24:44;42.20;51.00
48752;DHT22;34544;48.836;9.174;2023-07-09T12:27:27;42.10;52.40
48752;DHT22;34544;48.836;9.174;2023-07-09T12:30:02;41.90;51.50
48752;DHT22;34544;48.836;9.174;2023-07-09T12:32:28;42.00;52.60
48752;DHT22;34544;48.836;9.174;2023-07-09T12:34:56;42.50;52.00
48752;DHT22;34544;48.836;9.174;2023-07-09T12:37:31;43.00;53.40
48752;DHT22;34544;48.836;9.174;2023-07-09T12:39:59;43.80;51.70
48752;DHT22;34544;48.836;9.174;2023-07-09T12:44:56;44.80;51.90
48752;DHT22;34544;48.836;9.174;2023-07-09T12:47:24;45.40;51.50
48752;DHT22;34544;48.836;9.174;2023-07-09T12:49:50;45.40;50.60
48752;DHT22;34544;48.836;9.174;2023-07-09T12:52:21;44.90;50.90
48752;DHT22;34544;48.836;9.174;2023-07-09T12:54:58;43.80;50.30
48752;DHT22;34544;48.836;9.174;2023-07-09T12:57:24;43.50;50.70
48752;DHT22;34544;48.836;9.174;2023-07-09T12:59:51;43.70;52.00
48752;DHT22;34544;48.836;9.174;2023-07-09T13:02:22;44.20;51.70
48752;DHT22;34544;48.836;9.174;2023-07-09T13:04:50;44.80;52.30
48752;DHT22;34544;48.836;9.174;2023-07-09T13:09:52;45.90;49.80
48752;DHT22;34544;48.836;9.174;2023-07-09T13:12:19;46.00;48.50
48752;DHT22;34544;48.836;9.174;2023-07-09T13:14:55;45.60;48.50
48752;DHT22;34544;48.836;9.174;2023-07-09T13:17:21;45.50;48.80
48752;DHT22;34544;48.836;9.174;2023-07-09T13:19:47;45.60;48.20
48752;DHT22;34544;48.836;9.174;2023-07-09T13:22:15;45.80;47.30
48752;DHT22;34544;48.836;9.174;2023-07-09T13:24:41;46.00;47.20
48752;DHT22;34544;48.836;9.174;2023-07-09T13:27:11;45.30;46.50
48752;DHT22;34544;48.836;9.174;2023-07-09T13:29:37;44.60;46.90
48752;DHT22;34544;48.836;9.174;2023-07-09T13:32:12;44.30;48.50
48752;DHT22;34544;48.836;9.174;2023-07-09T13:34:38;44.30;47.90
48752;DHT22;34544;48.836;9.174;2023-07-09T13:37:09;44.60;47.40
48752;DHT22;34544;48.836;9.174;2023-07-09T13:39:37;45.00;48.00
48752;DHT22;34544;48.836;9.174;2023-07-09T13:42:03;45.50;48.30
48752;DHT22;34544;48.836;9.174;2023-07-09T13:44:29;45.80;47.10
48752;DHT22;34544;48.836;9.174;2023-07-09T13:46:56;45.60;47.30
48752;DHT22;34544;48.836;9.174;2023-07-09T13:49:24;45.30;47.70
48752;DHT22;34544;48.836;9.174;2023-07-09T13:51:52;44.80;47.90
48752;DHT22;34544;48.836;9.174;2023-07-09T13:54:22;44.70;48.00
48752;DHT22;34544;48.836;9.174;2023-07-09T13:56:49;44.70;48.50
48752;DHT22;34544;48.836;9.174;2023-07-09T13:59:20;44.80;49.20
48752;DHT22;34544;48.836;9.174;2023-07-09T14:01:50;45.20;48.70
48752;DHT22;34544;48.836;9.174;2023-07-09T14:04:29;45.40;48.70
48752;DHT22;34544;48.836;9.174;2023-07-09T14:06:55;45.60;49.50
48752;DHT22;34544;48.836;9.174;2023-07-09T14:09:21;45.50;47.10
48752;DHT22;34544;48.836;9.174;2023-07-09T14:11:52;45.30;47.80
48752;DHT22;34544;48.836;9.174;2023-07-09T14:14:29;45.30;49.00
48752;DHT22;34544;48.836;9.174;2023-07-09T14:16:56;45.40;48.00
48752;DHT22;34544;48.836;9.174;2023-07-09T14:19:23;44.80;47.10
48752;DHT22;34544;48.836;9.174;2023-07-09T14:21:50;43.80;47.10
48752;DHT22;34544;48.836;9.174;2023-07-09T14:24:19;43.10;47.70
48752;DHT22;34544;48.836;9.174;2023-07-09T14:26:47;42.30;48.10
48752;DHT22;34544;48.836;9.174;2023-07-09T14:29:13;41.80;48.80
48752;DHT22;34544;48.836;9.174;2023-07-09T14:31:42;41.50;49.40
48752;DHT22;34544;48.836;9.174;2023-07-09T14:36:43;41.80;49.50
48752;DHT22;34544;48.836;9.174;2023-07-09T14:39:11;42.10;49.70
48752;DHT22;34544;48.836;9.174;2023-07-09T14:41:37;42.60;49.60
48752;DHT22;34544;48.836;9.174;2023-07-09T14:44:20;43.20;50.00
48752;DHT22;34544;48.836;9.174;2023-07-09T14:46:48;43.80;49.60
48752;DHT22;34544;48.836;9.174;2023-07-09T14:49:16;44.20;49.30
48752;DHT22;34544;48.836;9.174;2023-07-09T14:51:42;44.10;48.50
48752;DHT22;34544;48.836;9.174;2023-07-09T14:54:26;43.90;48.80
48752;DHT22;34544;48.836;9.174;2023-07-09T14:56:53;43.90;48.90
48752;DHT22;34544;48.836;9.174;2023-07-09T14:59:19;44.00;50.10
48752;DHT22;34544;48.836;9.174;2023-07-09T15:01:45;44.10;49.40
48752;DHT22;34544;48.836;9.174;2023-07-09T15:06:49;43.90;48.70
48752;DHT22;34544;48.836;9.174;2023-07-09T15:09:15;43.80;49.10
48752;DHT22;34544;48.836;9.174;2023-07-09T15:11:45;43.80;49.40
48752;DHT22;34544;48.836;9.174;2023-07-09T15:14:11;43.80;49.90
48752;DHT22;34544;48.836;9.174;2023-07-09T15:16:37;43.70;50.30
48752;DHT22;34544;48.836;9.174;2023-07-09T15:19:13;43.30;49.30
48752;DHT22;34544;48.836;9.174;2023-07-09T15:21:39;43.00;49.60
48752;DHT22;34544;48.836;9.174;2023-07-09T15:24:29;42.90;49.70
48752;DHT22;34544;48.836;9.174;2023-07-09T15:26:56;42.50;49.90
48752;DHT22;34544;48.836;9.174;2023-07-09T15:29:23;42.30;50.00
48752;DHT22;34544;48.836;9.174;2023-07-09T15:31:49;42.10;50.20
48752;DHT22;34544;48.836;9.174;2023-07-09T15:34:15;41.50;49.60
48752;DHT22;34544;48.836;9.174;2023-07-09T15:36:49;40.90;50.00
48752;DHT22;34544;48.836;9.174;2023-07-09T15:39:16;40.30;50.60
48752;DHT22;34544;48.836;9.174;2023-07-09T15:41:41;39.70;50.70
48752;DHT22;34544;48.836;9.174;2023-07-09T15:44:15;39.30;51.20
48752;DHT22;34544;48.836;9.174;2023-07-09T15:46:51;38.90;51.60
48752;DHT22;34544;48.836;9.174;2023-07-09T15:49:18;38.80;51.70
48752;DHT22;34544;48.836;9.174;2023-07-09T15:51:44;38.60;51.80
48752;DHT22;34544;48.836;9.174;2023-07-09T15:54:17;38.50;51.50
48752;DHT22;34544;48.836;9.174;2023-07-09T15:56:44;38.20;51.90
48752;DHT22;34544;48.836;9.174;2023-07-09T16:01:47;38.00;52.30
48752;DHT22;34544;48.836;9.174;2023-07-09T16:04:13;38.10;52.30
48752;DHT22;34544;48.836;9.174;2023-07-09T16:06:39;37.90;52.20
48752;DHT22;34544;48.836;9.174;2023-07-09T16:09:06;37.80;52.60
48752;DHT22;34544;48.836;9.174;2023-07-09T16:11:32;37.70;52.40
48752;DHT22;34544;48.836;9.174;2023-07-09T16:13:58;37.70;53.70
48752;DHT22;34544;48.836;9.174;2023-07-09T16:16:24;37.60;52.40
48752;DHT22;34544;48.836;9.174;2023-07-09T16:18:51;37.40;52.50
48752;DHT22;34544;48.836;9.174;2023-07-09T16:21:29;37.30;52.80
48752;DHT22;34544;48.836;9.174;2023-07-09T16:23:57;37.10;52.80
48752;DHT22;34544;48.836;9.174;2023-07-09T16:26:24;37.00;53.40
48752;DHT22;34544;48.836;9.174;2023-07-09T16:28:50;36.90;55.20
48752;DHT22;34544;48.836;9.174;2023-07-09T16:31:15;36.90;53.70
48752;DHT22;34544;48.836;9.174;2023-07-09T16:33:41;36.80;53.80
48752;DHT22;34544;48.836;9.174;2023-07-09T16:36:15;36.80;53.90
48752;DHT22;34544;48.836;9.174;2023-07-09T16:38:41;36.70;54.60